createdAt,value
2019-04-29T00:01:46.525Z,10.80
2019-04-29T00:04:18.511Z,11.57
2019-04-29T00:06:50.770Z,12.10
2019-04-29T00:09:23.073Z,11.93
2019-04-29T00:11:54.719Z,12.10
2019-04-29T00:14:28.115Z,10.63
2019-04-29T00:17:06.334Z,11.33
2019-04-29T00:19:42.695Z,13.00
2019-04-29T00:22:14.588Z,11.78
2019-04-29T00:24:46.725Z,11.12
2019-04-29T00:27:18.778Z,10.43
2019-04-29T00:29:50.656Z,7.80
2019-04-29T00:32:25.479Z,8.48
2019-04-29T00:34:57.352Z,7.60
2019-04-29T00:37:39.869Z,7.87
2019-04-29T00:40:29.863Z,7.92
2019-04-29T00:43:09.399Z,8.50
2019-04-29T00:45:41.468Z,8.25
2019-04-29T00:48:13.108Z,8.30
2019-04-29T00:50:44.770Z,8.63
2019-04-29T00:53:16.750Z,7.85
2019-04-29T00:55:49.843Z,8.50
2019-04-29T00:58:21.998Z,8.23
2019-04-29T01:00:54.062Z,8.35
2019-04-29T01:03:26.043Z,8.20
2019-04-29T01:05:57.775Z,9.10
2019-04-29T01:08:29.872Z,9.10
2019-04-29T01:11:01.530Z,8.98
2019-04-29T01:13:33.294Z,9.00
2019-04-29T01:16:04.949Z,8.88
2019-04-29T01:18:36.813Z,9.38
2019-04-29T01:21:08.625Z,9.73
2019-04-29T01:23:40.542Z,9.38
2019-04-29T01:26:16.837Z,9.20
2019-04-29T01:28:56.456Z,8.95
2019-04-29T01:31:30.097Z,8.30
2019-04-29T01:34:03.419Z,7.72
2019-04-29T01:36:37.148Z,7.75
2019-04-29T01:39:11.656Z,7.20
2019-04-29T01:41:44.969Z,7.50
2019-04-29T01:44:18.592Z,6.80
2019-04-29T01:46:50.766Z,6.70
2019-04-29T01:49:22.525Z,6.87
2019-04-29T01:51:54.497Z,7.00
2019-04-29T01:54:26.546Z,7.10
2019-04-29T01:56:58.513Z,6.85
2019-04-29T01:59:30.269Z,6.80
2019-04-29T02:02:02.455Z,7.83
2019-04-29T02:04:34.590Z,8.33
2019-04-29T02:07:06.695Z,8.40
2019-04-29T02:09:40.299Z,9.50
2019-04-29T02:12:12.369Z,10.70
2019-04-29T02:14:44.639Z,9.65
2019-04-29T02:17:16.724Z,11.05
2019-04-29T02:19:48.551Z,9.33
2019-04-29T02:22:28.411Z,10.32
2019-04-29T02:25:02.125Z,9.33
2019-04-29T02:27:34.007Z,9.80
2019-04-29T02:30:07.587Z,9.98
2019-04-29T02:32:39.545Z,9.30
2019-04-29T02:35:11.715Z,8.60
2019-04-29T02:37:45.220Z,10.70
2019-04-29T02:40:34.714Z,10.50
2019-04-29T02:43:08.419Z,10.32
2019-04-29T02:45:40.485Z,9.20
2019-04-29T02:48:12.458Z,10.13
2019-04-29T02:50:44.145Z,9.78
2019-04-29T02:53:15.676Z,9.70
2019-04-29T02:55:49.482Z,9.33
2019-04-29T02:58:23.174Z,8.88
2019-04-29T03:01:13.603Z,8.33
2019-04-29T03:03:47.397Z,9.05
2019-04-29T03:06:19.492Z,8.50
2019-04-29T03:08:51.230Z,8.80
2019-04-29T03:11:24.425Z,9.60
2019-04-29T03:13:56.698Z,9.98
2019-04-29T03:16:28.681Z,9.75
2019-04-29T03:19:05.244Z,10.05
2019-04-29T03:21:38.708Z,9.43
2019-04-29T03:24:10.498Z,9.87
2019-04-29T03:26:42.348Z,9.30
2019-04-29T03:29:23.581Z,10.20
2019-04-29T03:31:56.651Z,9.93
2019-04-29T03:34:28.415Z,11.05
2019-04-29T03:37:00.065Z,11.03
2019-04-29T03:39:32.035Z,10.68
2019-04-29T03:42:07.275Z,10.63
2019-04-29T03:44:37.380Z,10.68
2019-04-29T03:47:09.775Z,11.15
2019-04-29T03:49:41.643Z,11.35
2019-04-29T03:52:13.811Z,11.30
2019-04-29T03:54:45.884Z,10.32
2019-04-29T03:57:18.658Z,11.00
2019-04-29T03:59:50.733Z,10.32
2019-04-29T04:02:24.438Z,10.50
2019-04-29T04:05:07.057Z,10.80
2019-04-29T04:07:40.647Z,9.60
2019-04-29T04:10:13.248Z,9.63
2019-04-29T04:12:44.990Z,9.48
2019-04-29T04:15:17.284Z,9.35
2019-04-29T04:18:06.041Z,9.78
2019-04-29T04:20:38.313Z,9.05
2019-04-29T04:23:10.685Z,8.65
2019-04-29T04:25:42.762Z,9.58
2019-04-29T04:28:14.702Z,9.43
2019-04-29T04:30:46.564Z,8.60
2019-04-29T04:33:18.790Z,8.75
2019-04-29T04:35:50.871Z,8.68
2019-04-29T04:38:22.689Z,9.15
2019-04-29T04:41:05.594Z,8.55
2019-04-29T04:43:37.588Z,8.60
2019-04-29T04:46:10.366Z,8.35
2019-04-29T04:48:42.317Z,8.58
2019-04-29T04:51:14.314Z,8.28
2019-04-29T04:53:46.979Z,8.18
2019-04-29T04:56:19.133Z,8.15
2019-04-29T04:58:50.808Z,8.23
2019-04-29T05:01:22.883Z,8.43
2019-04-29T05:03:54.844Z,8.58
2019-04-29T05:06:26.792Z,8.05
2019-04-29T05:08:59.096Z,8.68
2019-04-29T05:11:31.081Z,8.83
2019-04-29T05:14:02.685Z,8.35
2019-04-29T05:16:34.758Z,8.30
2019-04-29T05:19:06.742Z,7.90
2019-04-29T05:21:38.828Z,8.23
2019-04-29T05:24:10.673Z,8.40
2019-04-29T05:26:42.825Z,8.48
2019-04-29T05:29:14.910Z,8.45
2019-04-29T05:31:46.754Z,8.63
2019-04-29T05:34:19.558Z,8.43
2019-04-29T05:36:52.851Z,8.85
2019-04-29T05:39:26.565Z,9.18
2019-04-29T05:41:59.009Z,8.70
2019-04-29T05:44:33.452Z,9.70
2019-04-29T05:47:17.838Z,9.93
2019-04-29T05:50:07.197Z,10.55
2019-04-29T05:52:57.234Z,9.80
2019-04-29T05:55:29.251Z,11.97
2019-04-29T05:58:12.794Z,12.85
2019-04-29T06:00:46.380Z,14.80
2019-04-29T06:03:18.238Z,15.85
2019-04-29T06:05:50.048Z,22.22
2019-04-29T06:08:22.070Z,18.12
2019-04-29T06:10:53.747Z,18.20
2019-04-29T06:13:25.915Z,17.12
2019-04-29T06:15:57.756Z,14.50
2019-04-29T06:18:29.745Z,14.35
2019-04-29T06:21:08.934Z,15.15
2019-04-29T06:23:35.142Z,14.95
2019-04-29T06:26:07.283Z,13.08
2019-04-29T06:28:40.085Z,13.70
2019-04-29T06:31:12.230Z,13.45
2019-04-29T06:33:44.296Z,13.62
2019-04-29T06:36:15.947Z,13.80
2019-04-29T06:38:48.032Z,14.05
2019-04-29T06:41:21.294Z,14.40
2019-04-29T06:44:00.637Z,13.58
2019-04-29T06:46:30.725Z,13.60
2019-04-29T06:49:10.091Z,12.88
2019-04-29T06:51:36.242Z,12.75
2019-04-29T06:54:08.109Z,12.47
2019-04-29T06:56:39.988Z,13.00
2019-04-29T06:59:13.881Z,13.18
2019-04-29T07:01:45.468Z,14.58
2019-04-29T07:04:17.526Z,13.65
2019-04-29T07:06:57.069Z,14.25
2019-04-29T07:09:22.791Z,14.75
2019-04-29T07:12:01.116Z,14.50
2019-04-29T07:14:32.799Z,14.33
2019-04-29T07:17:05.729Z,13.83
2019-04-29T07:19:35.954Z,13.28
2019-04-29T07:22:07.936Z,12.95
2019-04-29T07:24:39.887Z,11.25
2019-04-29T07:27:11.868Z,11.50
2019-04-29T07:29:44.858Z,10.08
2019-04-29T07:32:16.821Z,10.95
2019-04-29T07:34:48.770Z,11.05
2019-04-29T07:37:20.649Z,12.60
2019-04-29T07:39:52.413Z,11.25
2019-04-29T07:42:30.385Z,10.82
2019-04-29T07:45:15.885Z,12.47
2019-04-29T07:47:56.697Z,13.13
2019-04-29T07:50:26.603Z,14.15
2019-04-29T07:52:57.226Z,13.55
2019-04-29T07:55:30.718Z,14.10
2019-04-29T07:58:02.594Z,14.18
2019-04-29T08:00:35.635Z,14.73
2019-04-29T08:03:08.365Z,13.93
2019-04-29T08:05:40.646Z,13.22
2019-04-29T08:08:16.731Z,13.72
2019-04-29T08:10:56.168Z,13.32
2019-04-29T08:15:53.405Z,11.73
2019-04-29T08:18:25.278Z,11.75
2019-04-29T08:20:57.047Z,10.95
2019-04-29T08:23:33.057Z,10.15
2019-04-29T08:26:04.115Z,10.53
2019-04-29T08:28:35.705Z,9.33
2019-04-29T08:31:08.253Z,8.40
2019-04-29T08:33:42.415Z,9.48
2019-04-29T08:36:13.241Z,9.00
2019-04-29T08:38:44.902Z,8.68
2019-04-29T08:41:21.536Z,8.20
2019-04-29T08:43:52.523Z,7.15
2019-04-29T08:46:30.096Z,7.50
2019-04-29T08:49:06.043Z,7.47
2019-04-29T08:51:35.410Z,6.58
2019-04-29T08:54:07.384Z,6.12
2019-04-29T08:56:42.543Z,5.72
2019-04-29T08:59:12.694Z,5.70
2019-04-29T09:01:44.733Z,5.62
2019-04-29T09:04:16.491Z,5.35
2019-04-29T09:06:48.616Z,4.60
2019-04-29T09:09:28.983Z,4.60
2019-04-29T09:11:54.070Z,4.60
2019-04-29T09:14:25.922Z,4.85
2019-04-29T09:16:57.883Z,5.10
2019-04-29T09:19:30.055Z,5.03
2019-04-29T09:22:03.533Z,5.08
2019-04-29T09:24:37.257Z,5.83
2019-04-29T09:27:17.003Z,5.58
2019-04-29T09:29:54.197Z,5.90
2019-04-29T09:32:23.629Z,6.85
2019-04-29T09:34:55.648Z,6.58
2019-04-29T09:37:28.872Z,6.35
2019-04-29T09:40:00.926Z,7.12
2019-04-29T09:42:50.212Z,6.97
2019-04-29T09:45:39.760Z,6.33
2019-04-29T09:48:11.791Z,6.60
2019-04-29T09:50:43.484Z,6.37
2019-04-29T09:53:15.366Z,5.95
2019-04-29T09:55:48.549Z,6.37
2019-04-29T09:58:20.216Z,6.90
2019-04-29T10:01:13.861Z,6.58
2019-04-29T10:04:02.837Z,6.67
2019-04-29T10:06:39.014Z,6.55
2019-04-29T10:09:11.679Z,6.10
2019-04-29T10:11:43.861Z,7.10
2019-04-29T10:14:16.035Z,6.87
2019-04-29T10:17:05.814Z,7.75
2019-04-29T10:19:54.571Z,18.55
2019-04-29T10:22:26.539Z,20.77
2019-04-29T10:24:58.300Z,21.62
2019-04-29T10:27:30.575Z,21.95
2019-04-29T10:30:02.438Z,20.65
2019-04-29T10:32:37.852Z,21.12
2019-04-29T10:35:10.704Z,22.58
2019-04-29T10:37:42.720Z,21.07
2019-04-29T10:40:28.223Z,20.27
2019-04-29T10:43:04.382Z,17.92
2019-04-29T10:45:43.817Z,17.90
2019-04-29T10:48:17.321Z,20.75
2019-04-29T10:53:23.033Z,22.35
2019-04-29T10:55:55.045Z,21.45
2019-04-29T10:58:31.185Z,21.50
2019-04-29T11:01:41.688Z,22.87
2019-04-29T11:04:14.792Z,21.50
2019-04-29T11:06:46.853Z,22.32
2019-04-29T11:09:22.899Z,23.93
2019-04-29T11:11:54.552Z,23.38
2019-04-29T11:14:26.639Z,23.65
2019-04-29T11:16:58.604Z,22.87
2019-04-29T11:19:30.362Z,21.70
2019-04-29T11:22:03.311Z,21.48
2019-04-29T11:24:39.931Z,20.57
2019-04-29T11:27:13.462Z,16.07
2019-04-29T11:29:45.498Z,14.45
2019-04-29T11:32:24.783Z,13.83
2019-04-29T11:35:06.191Z,14.33
2019-04-29T11:37:38.184Z,13.72
2019-04-29T11:40:10.335Z,10.60
2019-04-29T11:42:42.212Z,9.28
2019-04-29T11:45:14.164Z,9.03
2019-04-29T11:47:46.349Z,8.68
2019-04-29T11:50:27.048Z,7.97
2019-04-29T11:52:59.290Z,7.90
2019-04-29T11:55:31.336Z,8.15
2019-04-29T11:58:14.051Z,7.28
2019-04-29T12:01:08.581Z,8.83
2019-04-29T12:03:42.630Z,7.90
2019-04-29T12:06:16.361Z,9.88
2019-04-29T12:08:53.239Z,8.85
2019-04-29T12:11:22.991Z,9.45
2019-04-29T12:14:08.796Z,9.03
2019-04-29T12:16:42.284Z,12.13
2019-04-29T12:19:17.116Z,10.40
2019-04-29T12:21:49.768Z,8.30
2019-04-29T12:24:21.440Z,10.55
2019-04-29T12:26:53.485Z,16.80
2019-04-29T12:29:25.609Z,18.70
2019-04-29T12:32:02.020Z,21.95
2019-04-29T12:34:54.199Z,18.52
2019-04-29T12:37:40.374Z,16.12
2019-04-29T12:40:30.561Z,12.03
2019-04-29T12:43:20.224Z,14.80
2019-04-29T12:45:54.077Z,15.58
2019-04-29T12:48:26.257Z,13.48
2019-04-29T12:50:58.293Z,12.80
2019-04-29T12:53:30.441Z,13.32
2019-04-29T12:56:02.527Z,13.88
2019-04-29T12:58:34.397Z,13.28
2019-04-29T13:01:20.108Z,12.88
2019-04-29T13:04:10.738Z,13.05
2019-04-29T13:06:50.986Z,13.20
2019-04-29T13:09:34.996Z,12.60
2019-04-29T13:12:19.130Z,13.40
2019-04-29T13:15:01.817Z,11.80
2019-04-29T13:17:26.471Z,10.93
2019-04-29T13:20:02.553Z,10.38
2019-04-29T13:22:35.200Z,10.75
2019-04-29T13:25:08.805Z,10.05
2019-04-29T13:27:40.599Z,11.03
2019-04-29T13:30:16.239Z,10.80
2019-04-29T13:32:47.046Z,9.78
2019-04-29T13:35:19.224Z,10.65
2019-04-29T13:37:50.883Z,9.63
2019-04-29T13:40:22.948Z,9.53
2019-04-29T13:42:54.795Z,9.60
2019-04-29T13:45:34.666Z,9.50
2019-04-29T13:48:10.911Z,9.58
2019-04-29T13:50:47.373Z,9.85
2019-04-29T13:53:19.689Z,9.30
2019-04-29T13:56:09.910Z,9.33
2019-04-29T13:58:27.046Z,10.08
2019-04-29T14:01:20.506Z,9.88
2019-04-29T14:03:46.320Z,9.63
2019-04-29T14:06:18.663Z,9.55
2019-04-29T14:08:49.316Z,9.55
2019-04-29T14:11:21.869Z,9.08
2019-04-29T14:13:56.084Z,9.75
2019-04-29T14:16:28.250Z,9.85
2019-04-29T14:19:00.672Z,10.30
2019-04-29T14:21:32.575Z,10.08
2019-04-29T14:24:04.253Z,10.15
2019-04-29T14:26:37.091Z,9.88
2019-04-29T14:29:10.128Z,9.60
2019-04-29T14:31:42.194Z,10.03
2019-04-29T14:34:34.966Z,9.88
2019-04-29T14:37:21.425Z,9.50
2019-04-29T14:39:39.599Z,9.33
2019-04-29T14:42:30.273Z,9.95
2019-04-29T14:45:07.288Z,9.60
2019-04-29T14:47:52.870Z,9.85
2019-04-29T14:50:24.940Z,10.23
2019-04-29T14:52:57.109Z,10.88
2019-04-29T14:55:35.143Z,10.38
2019-04-29T14:58:06.989Z,10.45
2019-04-29T15:00:50.949Z,9.83
2019-04-29T15:03:24.806Z,10.13
2019-04-29T15:05:56.819Z,10.25
2019-04-29T15:08:32.070Z,9.80
2019-04-29T15:11:04.094Z,9.48
2019-04-29T15:13:35.931Z,10.40
2019-04-29T15:16:14.011Z,9.38
2019-04-29T15:18:50.325Z,9.83
2019-04-29T15:21:42.552Z,9.43
2019-04-29T15:24:13.634Z,9.53
2019-04-29T15:26:45.798Z,10.23
2019-04-29T15:29:20.323Z,9.25
2019-04-29T15:32:11.218Z,10.75
2019-04-29T15:34:43.935Z,10.63
2019-04-29T15:37:16.384Z,11.60
2019-04-29T15:39:48.367Z,11.70
2019-04-29T15:42:20.094Z,12.03
2019-04-29T15:44:57.028Z,11.68
2019-04-29T15:47:31.298Z,12.37
2019-04-29T15:50:17.392Z,12.23
2019-04-29T15:52:35.547Z,12.55
2019-04-29T15:55:07.408Z,12.82
2019-04-29T15:57:39.870Z,12.90
2019-04-29T16:00:21.269Z,13.25
2019-04-29T16:02:46.185Z,12.73
2019-04-29T16:05:54.042Z,13.22
2019-04-29T16:08:30.547Z,12.98
2019-04-29T16:11:40.177Z,13.65
2019-04-29T16:14:20.845Z,13.80
2019-04-29T16:16:52.925Z,14.28
2019-04-29T16:19:24.591Z,13.68
2019-04-29T16:21:58.192Z,15.83
2019-04-29T16:24:38.517Z,14.50
2019-04-29T16:27:10.240Z,13.80
2019-04-29T16:29:46.051Z,13.08
2019-04-29T16:32:30.114Z,13.83
2019-04-29T16:35:02.383Z,13.78
2019-04-29T16:37:33.978Z,14.20
2019-04-29T16:40:08.139Z,15.63
2019-04-29T16:42:53.639Z,13.45
2019-04-29T16:45:44.202Z,15.38
2019-04-29T16:48:17.233Z,15.10
2019-04-29T16:50:50.525Z,15.33
2019-04-29T16:53:40.725Z,15.68
2019-04-29T16:56:35.318Z,15.15
2019-04-29T16:59:17.979Z,15.10
2019-04-29T17:02:09.976Z,14.90
2019-04-29T17:04:46.134Z,14.83
2019-04-29T17:07:19.326Z,16.02
2019-04-29T17:09:59.079Z,14.75
2019-04-29T17:12:36.239Z,15.63
2019-04-29T17:15:23.829Z,15.90
2019-04-29T17:17:42.225Z,15.95
2019-04-29T17:20:14.923Z,16.27
2019-04-29T17:22:46.680Z,16.40
2019-04-29T17:25:18.910Z,15.28
2019-04-29T17:28:11.798Z,16.82
2019-04-29T17:30:48.522Z,16.80
2019-04-29T17:33:28.031Z,15.85
2019-04-29T17:35:58.046Z,16.52
2019-04-29T17:38:30.399Z,16.57
2019-04-29T17:41:02.385Z,15.53
2019-04-29T17:43:42.943Z,15.93
2019-04-29T17:46:32.225Z,15.48
2019-04-29T17:49:22.150Z,15.50
2019-04-29T17:52:01.439Z,15.60
2019-04-29T17:54:32.793Z,16.23
2019-04-29T17:57:25.611Z,15.80
2019-04-29T18:00:00.578Z,15.55
2019-04-29T18:02:52.454Z,15.65
2019-04-29T18:05:26.910Z,17.42
2019-04-29T18:08:08.736Z,16.07
2019-04-29T18:10:48.360Z,15.88
2019-04-29T18:13:24.042Z,15.00
2019-04-29T18:16:01.639Z,15.05
2019-04-29T18:18:30.525Z,14.18
2019-04-29T18:21:06.483Z,13.28
2019-04-29T18:23:47.005Z,14.70
2019-04-29T18:26:23.108Z,13.53
2019-04-29T18:28:56.877Z,13.75
2019-04-29T18:31:31.766Z,14.95
2019-04-29T18:34:05.580Z,14.53
2019-04-29T18:36:38.144Z,14.45
2019-04-29T18:39:11.633Z,14.30
2019-04-29T18:41:44.809Z,14.28
2019-04-29T18:44:19.600Z,13.95
2019-04-29T18:46:54.078Z,14.25
2019-04-29T18:49:27.663Z,16.07
2019-04-29T18:52:02.269Z,14.63
2019-04-29T18:54:33.366Z,15.55
2019-04-29T18:57:05.959Z,15.75
2019-04-29T18:59:38.105Z,15.25
2019-04-29T19:02:09.970Z,15.28
2019-04-29T19:04:48.519Z,14.68
2019-04-29T19:07:17.068Z,14.85
2019-04-29T19:09:48.808Z,14.58
2019-04-29T19:12:21.116Z,14.68
2019-04-29T19:14:53.267Z,15.05
2019-04-29T19:17:25.767Z,15.30
2019-04-29T19:19:57.691Z,15.05
2019-04-29T19:22:29.757Z,14.07
2019-04-29T19:25:01.738Z,15.03
2019-04-29T19:27:37.107Z,14.87
2019-04-29T19:30:09.086Z,14.87
2019-04-29T19:32:41.407Z,15.25
2019-04-29T19:35:16.801Z,15.50
2019-04-29T19:37:48.632Z,14.85
2019-04-29T19:40:20.902Z,14.98
2019-04-29T19:42:52.855Z,15.28
2019-04-29T19:45:25.021Z,14.90
2019-04-29T19:47:56.781Z,14.60
2019-04-29T19:50:28.965Z,14.10
2019-04-29T19:53:05.037Z,14.35
2019-04-29T19:55:43.976Z,15.00
2019-04-29T19:58:11.804Z,14.73
2019-04-29T20:00:41.970Z,14.07
2019-04-29T20:03:22.789Z,15.88
2019-04-29T20:05:49.835Z,15.98
2019-04-29T20:11:01.020Z,15.23
2019-04-29T20:13:31.729Z,16.10
2019-04-29T20:16:24.853Z,15.03
2019-04-29T20:19:01.848Z,15.78
2019-04-29T20:21:35.950Z,15.80
2019-04-29T20:24:09.793Z,15.55
2019-04-29T20:26:43.949Z,16.82
2019-04-29T20:29:15.936Z,16.67
2019-04-29T20:31:52.882Z,16.32
2019-04-29T20:34:24.630Z,17.15
2019-04-29T20:36:56.136Z,18.45
2019-04-29T20:39:28.375Z,17.42
2019-04-29T20:42:01.058Z,18.73
2019-04-29T20:44:36.597Z,18.30
2019-04-29T20:47:19.706Z,19.82
2019-04-29T20:49:41.151Z,18.73
2019-04-29T20:52:20.328Z,18.98
2019-04-29T20:54:56.199Z,19.45
2019-04-29T20:57:22.196Z,19.27
2019-04-29T20:59:55.092Z,19.67
2019-04-29T21:02:33.766Z,20.02
2019-04-29T21:05:01.508Z,20.12
2019-04-29T21:07:33.652Z,20.48
2019-04-29T21:10:08.569Z,20.85
2019-04-29T21:12:59.496Z,20.62
2019-04-29T21:15:36.301Z,20.35
2019-04-29T21:18:10.340Z,21.00
2019-04-29T21:20:41.724Z,22.15
2019-04-29T21:23:13.600Z,21.57
2019-04-29T21:25:46.077Z,23.70
2019-04-29T21:28:18.349Z,23.65
2019-04-29T21:30:50.112Z,22.75
2019-04-29T21:33:22.056Z,24.27
2019-04-29T21:35:58.852Z,23.98
2019-04-29T21:38:35.323Z,23.45
2019-04-29T21:41:15.498Z,25.10
2019-04-29T21:43:53.295Z,26.25
2019-04-29T21:46:27.821Z,25.40
2019-04-29T21:48:55.685Z,26.10
2019-04-29T21:51:27.517Z,27.35
2019-04-29T21:53:59.380Z,27.15
2019-04-29T21:56:31.468Z,26.12
2019-04-29T21:59:09.188Z,28.52
2019-04-29T22:01:38.061Z,27.52
2019-04-29T22:04:10.231Z,29.52
2019-04-29T22:06:42.177Z,29.72
2019-04-29T22:09:15.930Z,30.12
2019-04-29T22:11:48.885Z,29.05
2019-04-29T22:14:20.956Z,29.55
2019-04-29T22:16:54.362Z,31.05
2019-04-29T22:19:28.133Z,29.32
2019-04-29T22:22:01.501Z,32.53
2019-04-29T22:24:33.207Z,30.90
2019-04-29T22:27:08.167Z,31.73
2019-04-29T22:29:39.450Z,32.98
2019-04-29T22:32:14.675Z,32.65
2019-04-29T22:34:45.281Z,33.08
2019-04-29T22:37:17.749Z,33.23
2019-04-29T22:39:50.846Z,32.50
2019-04-29T22:42:30.050Z,32.75
2019-04-29T22:45:01.613Z,32.67
2019-04-29T22:47:33.476Z,32.55
2019-04-29T22:50:06.279Z,34.95
2019-04-29T22:52:38.446Z,34.90
2019-04-29T22:55:11.627Z,34.67
2019-04-29T22:57:44.914Z,34.48
2019-04-29T23:02:50.193Z,33.92
2019-04-29T23:05:23.609Z,34.18
2019-04-29T23:07:57.064Z,34.75
2019-04-29T23:10:28.837Z,35.52
2019-04-29T23:13:00.816Z,36.55
2019-04-29T23:15:33.275Z,36.50
2019-04-29T23:18:06.184Z,34.92
2019-04-29T23:20:51.751Z,33.83
2019-04-29T23:23:33.756Z,37.13
2019-04-29T23:26:04.166Z,34.48
2019-04-29T23:28:36.774Z,34.13
2019-04-29T23:31:08.899Z,32.98
2019-04-29T23:33:40.891Z,33.45
2019-04-29T23:36:14.111Z,34.35
2019-04-29T23:38:46.379Z,29.30
2019-04-29T23:41:18.148Z,33.28
2019-04-29T23:43:49.999Z,34.27
2019-04-29T23:46:22.175Z,34.05
2019-04-29T23:48:56.491Z,34.88
2019-04-29T23:51:34.577Z,34.48
2019-04-29T23:54:05.855Z,34.35
2019-04-29T23:56:42.834Z,34.17
2019-04-29T23:59:29.632Z,33.23
